Aviation Digital Data Service (ADDS)

Output produced by METARs form (1904 UTC 19 August 2019)
found at http://www.aviationweather.gov/metar/data/
 
METAR text: RJSS 191200Z 14008KT 9999 FEW008 BKN010 BKN015 25/22 Q1014
Conditions at: RJSS (SENDAI AIRPORT , JP) observed 1200 UTC 19 August 2019
Temperature: 25.0°C (77°F)
Dewpoint: 22.0°C (72°F) [RH = 83%]
Pressure (altimeter): 29.94 inches Hg (1014.0 mb)
Winds: from the SE (140 degrees) at 9 MPH (8 knots; 4.1 m/s)
Visibility: 6 or more miles (10+ km)
Ceiling: 1000 feet AGL
Clouds: few clouds at 800 feet AGL
broken clouds at 1000 feet AGL
broken clouds at 1500 feet AGL
Weather: no significant weather observed at this time

METAR text: RJSS 191100Z 15007KT 9999 -RA FEW008 BKN010 BKN015 25/22 Q1013
Conditions at: RJSS (SENDAI AIRPORT , JP) observed 1100 UTC 19 August 2019
Temperature: 25.0°C (77°F)
Dewpoint: 22.0°C (72°F) [RH = 83%]
Pressure (altimeter): 29.91 inches Hg (1013.0 mb)
Winds: from the SSE (150 degrees) at 8 MPH (7 knots; 3.6 m/s)
Visibility: 6 or more miles (10+ km)
Ceiling: 1000 feet AGL
Clouds: few clouds at 800 feet AGL
broken clouds at 1000 feet AGL
broken clouds at 1500 feet AGL
Weather: -RA  (light rain)

METAR text: RJSS 191000Z 13007KT 9999 FEW010 BKN012 BKN040 25/22 Q1013
Conditions at: RJSS (SENDAI AIRPORT , JP) observed 1000 UTC 19 August 2019
Temperature: 25.0°C (77°F)
Dewpoint: 22.0°C (72°F) [RH = 83%]
Pressure (altimeter): 29.91 inches Hg (1013.0 mb)
Winds: from the SE (130 degrees) at 8 MPH (7 knots; 3.6 m/s)
Visibility: 6 or more miles (10+ km)
Ceiling: 1200 feet AGL
Clouds: few clouds at 1000 feet AGL
broken clouds at 1200 feet AGL
broken clouds at 4000 feet AGL
Weather: no significant weather observed at this time

METAR text: RJSS 190900Z 13007KT 9999 FEW010 BKN012 BKN040 25/22 Q1013
Conditions at: RJSS (SENDAI AIRPORT , JP) observed 0900 UTC 19 August 2019
Temperature: 25.0°C (77°F)
Dewpoint: 22.0°C (72°F) [RH = 83%]
Pressure (altimeter): 29.91 inches Hg (1013.0 mb)
Winds: from the SE (130 degrees) at 8 MPH (7 knots; 3.6 m/s)
Visibility: 6 or more miles (10+ km)
Ceiling: 1200 feet AGL
Clouds: few clouds at 1000 feet AGL
broken clouds at 1200 feet AGL
broken clouds at 4000 feet AGL
Weather: no significant weather observed at this time

METAR text: RJSS 190800Z 12008KT 9999 FEW010 SCT012 BKN040 25/22 Q1013
Conditions at: RJSS (SENDAI AIRPORT , JP) observed 0800 UTC 19 August 2019
Temperature: 25.0°C (77°F)
Dewpoint: 22.0°C (72°F) [RH = 83%]
Pressure (altimeter): 29.91 inches Hg (1013.0 mb)
Winds: from the ESE (120 degrees) at 9 MPH (8 knots; 4.1 m/s)
Visibility: 6 or more miles (10+ km)
Ceiling: 4000 feet AGL
Clouds: few clouds at 1000 feet AGL
scattered clouds at 1200 feet AGL
broken clouds at 4000 feet AGL
Weather: no significant weather observed at this time

METAR text: RJSS 190700Z 12011KT 9999 FEW012 BKN040 26/22 Q1012
Conditions at: RJSS (SENDAI AIRPORT , JP) observed 0700 UTC 19 August 2019
Temperature: 26.0°C (79°F)
Dewpoint: 22.0°C (72°F) [RH = 79%]
Pressure (altimeter): 29.88 inches Hg (1012.0 mb)
Winds: from the ESE (120 degrees) at 13 MPH (11 knots; 5.7 m/s)
Visibility: 6 or more miles (10+ km)
Ceiling: 4000 feet AGL
Clouds: few clouds at 1200 feet AGL
broken clouds at 4000 feet AGL
Weather: no significant weather observed at this time

METAR text: RJSS 190600Z 12012KT 9999 FEW020 BKN040 26/22 Q1012
Conditions at: RJSS (SENDAI AIRPORT , JP) observed 0600 UTC 19 August 2019
Temperature: 26.0°C (79°F)
Dewpoint: 22.0°C (72°F) [RH = 79%]
Pressure (altimeter): 29.88 inches Hg (1012.0 mb)
Winds: from the ESE (120 degrees) at 14 MPH (12 knots; 6.2 m/s)
Visibility: 6 or more miles (10+ km)
Ceiling: 4000 feet AGL
Clouds: few clouds at 2000 feet AGL
broken clouds at 4000 feet AGL
Weather: no significant weather observed at this time

METAR text: RJSS 190500Z 12010KT 9999 FEW020 BKN040 26/22 Q1013
Conditions at: RJSS (SENDAI AIRPORT , JP) observed 0500 UTC 19 August 2019
Temperature: 26.0°C (79°F)
Dewpoint: 22.0°C (72°F) [RH = 79%]
Pressure (altimeter): 29.91 inches Hg (1013.0 mb)
Winds: from the ESE (120 degrees) at 12 MPH (10 knots; 5.1 m/s)
Visibility: 6 or more miles (10+ km)
Ceiling: 4000 feet AGL
Clouds: few clouds at 2000 feet AGL
broken clouds at 4000 feet AGL
Weather: no significant weather observed at this time

METAR text: RJSS 190400Z 12010KT 9999 FEW020 SCT040 BKN/// 27/22 Q1013
Conditions at: RJSS (SENDAI AIRPORT , JP) observed 0400 UTC 19 August 2019
Temperature: 27.0°C (81°F)
Dewpoint: 22.0°C (72°F) [RH = 74%]
Pressure (altimeter): 29.91 inches Hg (1013.0 mb)
Winds: from the ESE (120 degrees) at 12 MPH (10 knots; 5.1 m/s)
Visibility: 6 or more miles (10+ km)
Ceiling: at least 12,000 feet AGL
Clouds: few clouds at 2000 feet AGL
scattered clouds at 4000 feet AGL
Weather: no significant weather observed at this time

METAR text: RJSS 190300Z 11009KT 9999 FEW020 SCT030 BKN/// 27/22 Q1013
Conditions at: RJSS (SENDAI AIRPORT , JP) observed 0300 UTC 19 August 2019
Temperature: 27.0°C (81°F)
Dewpoint: 22.0°C (72°F) [RH = 74%]
Pressure (altimeter): 29.91 inches Hg (1013.0 mb)
Winds: from the ESE (110 degrees) at 10 MPH (9 knots; 4.6 m/s)
Visibility: 6 or more miles (10+ km)
Ceiling: at least 12,000 feet AGL
Clouds: few clouds at 2000 feet AGL
scattered clouds at 3000 feet AGL
Weather: no significant weather observed at this time

METAR text: RJSS 190200Z 12009KT 9999 FEW020 BKN030 27/22 Q1013
Conditions at: RJSS (SENDAI AIRPORT , JP) observed 0200 UTC 19 August 2019
Temperature: 27.0°C (81°F)
Dewpoint: 22.0°C (72°F) [RH = 74%]
Pressure (altimeter): 29.91 inches Hg (1013.0 mb)
Winds: from the ESE (120 degrees) at 10 MPH (9 knots; 4.6 m/s)
Visibility: 6 or more miles (10+ km)
Ceiling: 3000 feet AGL
Clouds: few clouds at 2000 feet AGL
broken clouds at 3000 feet AGL
Weather: no significant weather observed at this time

METAR text: RJSS 190100Z 12008KT 090V150 9999 FEW020 SCT040 27/22 Q1013
Conditions at: RJSS (SENDAI AIRPORT , JP) observed 0100 UTC 19 August 2019
Temperature: 27.0°C (81°F)
Dewpoint: 22.0°C (72°F) [RH = 74%]
Pressure (altimeter): 29.91 inches Hg (1013.0 mb)
Winds: from the ESE (120 degrees) at 9 MPH (8 knots; 4.1 m/s)
Visibility: 6 or more miles (10+ km)
Ceiling: at least 12,000 feet AGL
Clouds: few clouds at 2000 feet AGL
scattered clouds at 4000 feet AGL
Weather: no significant weather observed at this time

METAR text: RJSS 190000Z 11005KT 070V160 9999 FEW020 BKN040 26/22 Q1013
Conditions at: RJSS (SENDAI AIRPORT , JP) observed 0000 UTC 19 August 2019
Temperature: 26.0°C (79°F)
Dewpoint: 22.0°C (72°F) [RH = 79%]
Pressure (altimeter): 29.91 inches Hg (1013.0 mb)
Winds: from the ESE (110 degrees) at 6 MPH (5 knots; 2.6 m/s)
Visibility: 6 or more miles (10+ km)
Ceiling: 4000 feet AGL
Clouds: few clouds at 2000 feet AGL
broken clouds at 4000 feet AGL
Weather: no significant weather observed at this time

METAR text: RJSS 182300Z 12006KT 9999 FEW020 BKN025 BKN040 26/22 Q1013
Conditions at: RJSS (SENDAI AIRPORT , JP) observed 2300 UTC 18 August 2019
Temperature: 26.0°C (79°F)
Dewpoint: 22.0°C (72°F) [RH = 79%]
Pressure (altimeter): 29.91 inches Hg (1013.0 mb)
Winds: from the ESE (120 degrees) at 7 MPH (6 knots; 3.1 m/s)
Visibility: 6 or more miles (10+ km)
Ceiling: 2500 feet AGL
Clouds: few clouds at 2000 feet AGL
broken clouds at 2500 feet AGL
broken clouds at 4000 feet AGL
Weather: no significant weather observed at this time

METAR text: RJSS 182200Z 11005KT 9999 FEW015 BKN025 26/22 Q1013
Conditions at: RJSS (SENDAI AIRPORT , JP) observed 2200 UTC 18 August 2019
Temperature: 26.0°C (79°F)
Dewpoint: 22.0°C (72°F) [RH = 79%]
Pressure (altimeter): 29.91 inches Hg (1013.0 mb)
Winds: from the ESE (110 degrees) at 6 MPH (5 knots; 2.6 m/s)
Visibility: 6 or more miles (10+ km)
Ceiling: 2500 feet AGL
Clouds: few clouds at 1500 feet AGL
broken clouds at 2500 feet AGL
Weather: no significant weather observed at this time

METAR text: RJSS 182100Z 10006KT 9999 FEW015 SCT020 BKN025 25/21 Q1012
Conditions at: RJSS (SENDAI AIRPORT , JP) observed 2100 UTC 18 August 2019
Temperature: 25.0°C (77°F)
Dewpoint: 21.0°C (70°F) [RH = 79%]
Pressure (altimeter): 29.88 inches Hg (1012.0 mb)
Winds: from the E (100 degrees) at 7 MPH (6 knots; 3.1 m/s)
Visibility: 6 or more miles (10+ km)
Ceiling: 2500 feet AGL
Clouds: few clouds at 1500 feet AGL
scattered clouds at 2000 feet AGL
broken clouds at 2500 feet AGL
Weather: no significant weather observed at this time

METAR text: RJSS 181200Z 07007KT 9999 FEW025 SCT/// 26/23 Q1010
Conditions at: RJSS (SENDAI AIRPORT , JP) observed 1200 UTC 18 August 2019
Temperature: 26.0°C (79°F)
Dewpoint: 23.0°C (73°F) [RH = 84%]
Pressure (altimeter): 29.82 inches Hg (1010.0 mb)
Winds: from the ENE (70 degrees) at 8 MPH (7 knots; 3.6 m/s)
Visibility: 6 or more miles (10+ km)
Ceiling: at least 12,000 feet AGL
Clouds: few clouds at 2500 feet AGL
Weather: no significant weather observed at this time

METAR text: RJSS 181100Z 10003KT 9999 FEW025 SCT/// 26/22 Q1009
Conditions at: RJSS (SENDAI AIRPORT , JP) observed 1100 UTC 18 August 2019
Temperature: 26.0°C (79°F)
Dewpoint: 22.0°C (72°F) [RH = 79%]
Pressure (altimeter): 29.79 inches Hg (1009.0 mb)
Winds: from the E (100 degrees) at 3 MPH (3 knots; 1.5 m/s)
Visibility: 6 or more miles (10+ km)
Ceiling: at least 12,000 feet AGL
Clouds: few clouds at 2500 feet AGL
Weather: no significant weather observed at this time

METAR text: RJSS 181000Z 16006KT 9999 FEW025 26/22 Q1008
Conditions at: RJSS (SENDAI AIRPORT , JP) observed 1000 UTC 18 August 2019
Temperature: 26.0°C (79°F)
Dewpoint: 22.0°C (72°F) [RH = 79%]
Pressure (altimeter): 29.76 inches Hg (1008.0 mb)
Winds: from the SSE (160 degrees) at 7 MPH (6 knots; 3.1 m/s)
Visibility: 6 or more miles (10+ km)
Ceiling: at least 12,000 feet AGL
Clouds: few clouds at 2500 feet AGL
Weather: no significant weather observed at this time

METAR text: RJSS 180900Z 16008KT 9999 FEW025 27/21 Q1008
Conditions at: RJSS (SENDAI AIRPORT , JP) observed 0900 UTC 18 August 2019
Temperature: 27.0°C (81°F)
Dewpoint: 21.0°C (70°F) [RH = 70%]
Pressure (altimeter): 29.76 inches Hg (1008.0 mb)
Winds: from the SSE (160 degrees) at 9 MPH (8 knots; 4.1 m/s)
Visibility: 6 or more miles (10+ km)
Ceiling: at least 12,000 feet AGL
Clouds: few clouds at 2500 feet AGL
Weather: no significant weather observed at this time

METAR text: RJSS 180800Z 15009KT 9999 FEW030 28/22 Q1007
Conditions at: RJSS (SENDAI AIRPORT , JP) observed 0800 UTC 18 August 2019
Temperature: 28.0°C (82°F)
Dewpoint: 22.0°C (72°F) [RH = 70%]
Pressure (altimeter): 29.73 inches Hg (1007.0 mb)
Winds: from the SSE (150 degrees) at 10 MPH (9 knots; 4.6 m/s)
Visibility: 6 or more miles (10+ km)
Ceiling: at least 12,000 feet AGL
Clouds: few clouds at 3000 feet AGL
Weather: no significant weather observed at this time

Forecast for: RJSS (SENDAI AIRPORT , JP)
Text: TAF RJSS 191705Z 1918/2100 14008KT 9999 -RA FEW008 BKN015 BKN020
Forecast period: 1800 UTC 19 August 2019 to 0900 UTC 20 August 2019
Forecast type: FROM: standard forecast or significant change
Winds: from the SE (140 degrees) at 9 MPH (8 knots; 4.1 m/s)
Visibility: 6 or more miles 10+ km)
Ceiling: 1500 feet AGL
Clouds: few clouds at 800 feet AGL
broken clouds at 1500 feet AGL
broken clouds at 2000 feet AGL
Weather: -RA  (light rain)
Text: TEMPO 1918/2000 FEW005 BKN008 BKN015
Forecast period: 1800 UTC 19 August 2019 to 0000 UTC 20 August 2019
Forecast type: TEMPORARY: The following changes expected for less than half the time period
Visibility: missing
Ceiling: 800 feet AGL
Clouds: few clouds at 500 feet AGL
broken clouds at 800 feet AGL
broken clouds at 1500 feet AGL
Weather: no significant weather forecast for this period
Text: TEMPO 2000/2006 4000 SHRA BR
Forecast period: 0000 to 0600 UTC 20 August 2019
Forecast type: TEMPORARY: The following changes expected for less than half the time period
Visibility: 2.49 miles (4.01 km)
Ceiling: unknown
Clouds: missing
Weather: SHRA BR  (rain showers, mist)
Text: BECMG 2009/2012 34004KT
Forecast period: 0900 UTC 20 August 2019 to 0000 UTC 21 August 2019
Forecast type: BECOMING: Conditions expected to become as follows by 1200 UTC 20 August 2019
Winds: from the NNW (340 degrees) at 5 MPH (4 knots; 2.1 m/s)
Visibility: 6 or more miles 10+ km)
Ceiling: 1500 feet AGL
Clouds: few clouds at 800 feet AGL
broken clouds at 1500 feet AGL
broken clouds at 2000 feet AGL
Weather: -RA  (light rain)